sensor_id;sensor_type;location;lat;lon;timestamp;P1;durP1;ratioP1;P2;durP2;ratioP2
19167;SDS011;9716;53.114;18.040;2023-07-09T00:02:26;4.88;;;1.48;;
19167;SDS011;9716;53.114;18.040;2023-07-09T00:05:03;5.43;;;1.75;;
19167;SDS011;9716;53.114;18.040;2023-07-09T00:07:36;2.50;;;1.30;;
19167;SDS011;9716;53.114;18.040;2023-07-09T00:10:12;4.20;;;1.60;;
19167;SDS011;9716;53.114;18.040;2023-07-09T00:12:47;3.60;;;1.88;;
19167;SDS011;9716;53.114;18.040;2023-07-09T00:15:24;2.20;;;1.50;;
19167;SDS011;9716;53.114;18.040;2023-07-09T00:17:58;2.20;;;1.40;;
19167;SDS011;9716;53.114;18.040;2023-07-09T00:20:40;1.48;;;1.25;;
19167;SDS011;9716;53.114;18.040;2023-07-09T00:23:13;3.70;;;1.85;;
19167;SDS011;9716;53.114;18.040;2023-07-09T00:25:44;2.50;;;1.70;;
19167;SDS011;9716;53.114;18.040;2023-07-09T00:28:21;2.42;;;1.40;;
19167;SDS011;9716;53.114;18.040;2023-07-09T00:30:52;5.15;;;1.60;;
19167;SDS011;9716;53.114;18.040;2023-07-09T00:33:23;2.97;;;1.40;;
19167;SDS011;9716;53.114;18.040;2023-07-09T00:36:04;1.92;;;1.50;;
19167;SDS011;9716;53.114;18.040;2023-07-09T00:38:41;4.63;;;2.10;;
19167;SDS011;9716;53.114;18.040;2023-07-09T00:41:20;2.13;;;1.33;;
19167;SDS011;9716;53.114;18.040;2023-07-09T00:43:52;2.92;;;1.90;;
19167;SDS011;9716;53.114;18.040;2023-07-09T00:49:39;1.73;;;1.38;;
19167;SDS011;9716;53.114;18.040;2023-07-09T00:52:21;5.38;;;2.03;;
19167;SDS011;9716;53.114;18.040;2023-07-09T00:54:54;2.72;;;1.67;;
19167;SDS011;9716;53.114;18.040;2023-07-09T00:57:30;6.50;;;1.70;;
19167;SDS011;9716;53.114;18.040;2023-07-09T01:00:00;2.75;;;1.20;;
19167;SDS011;9716;53.114;18.040;2023-07-09T01:02:44;2.92;;;1.88;;
19167;SDS011;9716;53.114;18.040;2023-07-09T01:05:23;1.20;;;1.10;;
19167;SDS011;9716;53.114;18.040;2023-07-09T01:07:56;5.13;;;1.65;;
19167;SDS011;9716;53.114;18.040;2023-07-09T01:10:31;2.83;;;1.50;;
19167;SDS011;9716;53.114;18.040;2023-07-09T01:13:07;2.75;;;1.92;;
19167;SDS011;9716;53.114;18.040;2023-07-09T01:15:37;3.78;;;1.85;;
19167;SDS011;9716;53.114;18.040;2023-07-09T01:18:14;6.00;;;1.42;;
19167;SDS011;9716;53.114;18.040;2023-07-09T01:20:47;2.42;;;1.63;;
19167;SDS011;9716;53.114;18.040;2023-07-09T01:23:19;1.63;;;1.52;;
19167;SDS011;9716;53.114;18.040;2023-07-09T01:25:50;2.78;;;1.77;;
19167;SDS011;9716;53.114;18.040;2023-07-09T01:28:31;2.55;;;1.80;;
19167;SDS011;9716;53.114;18.040;2023-07-09T01:31:06;2.40;;;1.75;;
19167;SDS011;9716;53.114;18.040;2023-07-09T01:33:38;2.05;;;1.45;;
19167;SDS011;9716;53.114;18.040;2023-07-09T01:36:10;2.67;;;1.65;;
19167;SDS011;9716;53.114;18.040;2023-07-09T01:38:48;3.83;;;2.08;;
19167;SDS011;9716;53.114;18.040;2023-07-09T01:41:17;4.93;;;1.83;;
19167;SDS011;9716;53.114;18.040;2023-07-09T01:43:50;2.55;;;1.65;;
19167;SDS011;9716;53.114;18.040;2023-07-09T01:46:20;2.58;;;1.70;;
19167;SDS011;9716;53.114;18.040;2023-07-09T01:48:56;3.47;;;1.80;;
19167;SDS011;9716;53.114;18.040;2023-07-09T01:51:28;3.13;;;1.77;;
19167;SDS011;9716;53.114;18.040;2023-07-09T01:54:04;3.35;;;1.58;;
19167;SDS011;9716;53.114;18.040;2023-07-09T01:56:33;1.88;;;1.42;;
19167;SDS011;9716;53.114;18.040;2023-07-09T01:59:06;2.13;;;1.50;;
19167;SDS011;9716;53.114;18.040;2023-07-09T02:01:40;3.08;;;1.80;;
19167;SDS011;9716;53.114;18.040;2023-07-09T02:04:12;2.08;;;1.63;;
19167;SDS011;9716;53.114;18.040;2023-07-09T02:06:41;3.20;;;1.67;;
19167;SDS011;9716;53.114;18.040;2023-07-09T02:09:16;3.80;;;1.92;;
19167;SDS011;9716;53.114;18.040;2023-07-09T02:11:46;1.63;;;1.30;;
19167;SDS011;9716;53.114;18.040;2023-07-09T02:14:20;2.83;;;1.80;;
19167;SDS011;9716;53.114;18.040;2023-07-09T02:16:54;4.32;;;1.67;;
19167;SDS011;9716;53.114;18.040;2023-07-09T02:19:31;2.42;;;1.60;;
19167;SDS011;9716;53.114;18.040;2023-07-09T02:22:07;2.75;;;1.50;;
19167;SDS011;9716;53.114;18.040;2023-07-09T02:24:49;2.15;;;1.50;;
19167;SDS011;9716;53.114;18.040;2023-07-09T02:27:20;1.65;;;1.48;;
19167;SDS011;9716;53.114;18.040;2023-07-09T02:29:58;3.00;;;2.22;;
19167;SDS011;9716;53.114;18.040;2023-07-09T02:32:28;2.95;;;1.40;;
19167;SDS011;9716;53.114;18.040;2023-07-09T02:35:09;3.00;;;1.85;;
19167;SDS011;9716;53.114;18.040;2023-07-09T02:37:44;2.58;;;2.00;;
19167;SDS011;9716;53.114;18.040;2023-07-09T02:40:22;3.03;;;1.70;;
19167;SDS011;9716;53.114;18.040;2023-07-09T02:42:52;3.80;;;2.13;;
19167;SDS011;9716;53.114;18.040;2023-07-09T02:45:31;1.83;;;1.50;;
19167;SDS011;9716;53.114;18.040;2023-07-09T02:48:07;2.35;;;1.63;;
19167;SDS011;9716;53.114;18.040;2023-07-09T02:50:43;5.65;;;1.67;;
19167;SDS011;9716;53.114;18.040;2023-07-09T02:53:21;2.28;;;1.48;;
19167;SDS011;9716;53.114;18.040;2023-07-09T02:56:13;2.45;;;1.77;;
19167;SDS011;9716;53.114;18.040;2023-07-09T02:58:47;4.90;;;1.90;;
19167;SDS011;9716;53.114;18.040;2023-07-09T03:01:27;1.55;;;1.40;;
19167;SDS011;9716;53.114;18.040;2023-07-09T03:04:01;2.75;;;1.55;;
19167;SDS011;9716;53.114;18.040;2023-07-09T03:06:36;3.00;;;2.08;;
19167;SDS011;9716;53.114;18.040;2023-07-09T03:09:12;1.75;;;1.50;;
19167;SDS011;9716;53.114;18.040;2023-07-09T03:11:52;8.27;;;2.40;;
19167;SDS011;9716;53.114;18.040;2023-07-09T03:14:24;2.25;;;1.50;;
19167;SDS011;9716;53.114;18.040;2023-07-09T03:16:56;2.63;;;1.70;;
19167;SDS011;9716;53.114;18.040;2023-07-09T03:19:30;4.15;;;1.60;;
19167;SDS011;9716;53.114;18.040;2023-07-09T03:22:06;4.32;;;2.20;;
19167;SDS011;9716;53.114;18.040;2023-07-09T03:24:42;3.50;;;2.10;;
19167;SDS011;9716;53.114;18.040;2023-07-09T03:27:28;2.28;;;1.60;;
19167;SDS011;9716;53.114;18.040;2023-07-09T03:30:02;3.50;;;1.88;;
19167;SDS011;9716;53.114;18.040;2023-07-09T03:32:37;3.78;;;1.88;;
19167;SDS011;9716;53.114;18.040;2023-07-09T03:35:08;6.25;;;2.30;;
19167;SDS011;9716;53.114;18.040;2023-07-09T03:37:40;6.60;;;1.95;;
19167;SDS011;9716;53.114;18.040;2023-07-09T03:40:20;4.60;;;1.60;;
19167;SDS011;9716;53.114;18.040;2023-07-09T03:43:00;4.70;;;1.42;;
19167;SDS011;9716;53.114;18.040;2023-07-09T03:45:32;6.35;;;2.40;;
19167;SDS011;9716;53.114;18.040;2023-07-09T03:48:12;3.13;;;1.85;;
19167;SDS011;9716;53.114;18.040;2023-07-09T03:50:43;4.78;;;1.65;;
19167;SDS011;9716;53.114;18.040;2023-07-09T03:53:24;3.97;;;1.70;;
19167;SDS011;9716;53.114;18.040;2023-07-09T03:55:59;2.25;;;1.73;;
19167;SDS011;9716;53.114;18.040;2023-07-09T03:58:43;3.05;;;1.85;;
19167;SDS011;9716;53.114;18.040;2023-07-09T04:01:13;1.50;;;1.40;;
19167;SDS011;9716;53.114;18.040;2023-07-09T04:03:45;3.53;;;1.70;;
19167;SDS011;9716;53.114;18.040;2023-07-09T04:06:20;6.30;;;1.77;;
19167;SDS011;9716;53.114;18.040;2023-07-09T04:09:04;1.58;;;1.48;;
19167;SDS011;9716;53.114;18.040;2023-07-09T04:11:37;1.60;;;1.38;;
19167;SDS011;9716;53.114;18.040;2023-07-09T04:14:12;7.05;;;1.95;;
19167;SDS011;9716;53.114;18.040;2023-07-09T04:16:45;2.15;;;1.50;;
19167;SDS011;9716;53.114;18.040;2023-07-09T04:19:23;2.63;;;2.08;;
19167;SDS011;9716;53.114;18.040;2023-07-09T04:21:58;3.75;;;1.92;;
19167;SDS011;9716;53.114;18.040;2023-07-09T04:24:33;3.35;;;2.10;;
19167;SDS011;9716;53.114;18.040;2023-07-09T04:27:10;1.85;;;1.67;;
19167;SDS011;9716;53.114;18.040;2023-07-09T04:29:47;3.83;;;2.28;;
19167;SDS011;9716;53.114;18.040;2023-07-09T04:32:23;2.95;;;1.70;;
19167;SDS011;9716;53.114;18.040;2023-07-09T04:34:59;2.35;;;1.83;;
19167;SDS011;9716;53.114;18.040;2023-07-09T04:37:48;9.45;;;2.40;;
19167;SDS011;9716;53.114;18.040;2023-07-09T04:40:23;3.55;;;1.73;;
19167;SDS011;9716;53.114;18.040;2023-07-09T04:42:58;2.88;;;1.63;;
19167;SDS011;9716;53.114;18.040;2023-07-09T04:45:35;2.60;;;1.60;;
19167;SDS011;9716;53.114;18.040;2023-07-09T04:48:11;3.80;;;1.77;;
19167;SDS011;9716;53.114;18.040;2023-07-09T04:50:55;3.08;;;2.15;;
19167;SDS011;9716;53.114;18.040;2023-07-09T04:53:28;2.63;;;1.73;;
19167;SDS011;9716;53.114;18.040;2023-07-09T04:56:02;2.92;;;1.77;;
19167;SDS011;9716;53.114;18.040;2023-07-09T04:58:37;2.50;;;1.75;;
19167;SDS011;9716;53.114;18.040;2023-07-09T05:01:17;5.93;;;1.80;;
19167;SDS011;9716;53.114;18.040;2023-07-09T05:03:50;2.35;;;1.48;;
19167;SDS011;9716;53.114;18.040;2023-07-09T05:06:34;2.50;;;1.60;;
19167;SDS011;9716;53.114;18.040;2023-07-09T05:09:10;7.88;;;1.60;;
19167;SDS011;9716;53.114;18.040;2023-07-09T05:11:47;2.85;;;1.70;;
19167;SDS011;9716;53.114;18.040;2023-07-09T05:14:25;2.28;;;1.42;;
19167;SDS011;9716;53.114;18.040;2023-07-09T05:17:05;1.58;;;1.30;;
19167;SDS011;9716;53.114;18.040;2023-07-09T05:19:44;1.30;;;1.08;;
19167;SDS011;9716;53.114;18.040;2023-07-09T05:22:15;2.95;;;1.73;;
19167;SDS011;9716;53.114;18.040;2023-07-09T05:24:48;2.67;;;1.48;;
19167;SDS011;9716;53.114;18.040;2023-07-09T05:27:25;1.73;;;1.40;;
19167;SDS011;9716;53.114;18.040;2023-07-09T05:29:59;4.30;;;1.20;;
19167;SDS011;9716;53.114;18.040;2023-07-09T05:32:37;1.20;;;1.10;;
19167;SDS011;9716;53.114;18.040;2023-07-09T05:35:12;2.92;;;1.92;;
19167;SDS011;9716;53.114;18.040;2023-07-09T05:37:55;2.20;;;1.33;;
19167;SDS011;9716;53.114;18.040;2023-07-09T05:40:59;2.20;;;1.17;;
19167;SDS011;9716;53.114;18.040;2023-07-09T05:43:34;2.42;;;1.27;;
19167;SDS011;9716;53.114;18.040;2023-07-09T05:46:05;1.38;;;1.17;;
19167;SDS011;9716;53.114;18.040;2023-07-09T05:48:46;2.40;;;1.30;;
19167;SDS011;9716;53.114;18.040;2023-07-09T05:51:26;6.20;;;1.38;;
19167;SDS011;9716;53.114;18.040;2023-07-09T05:54:16;4.63;;;1.42;;
19167;SDS011;9716;53.114;18.040;2023-07-09T05:56:50;3.30;;;0.95;;
19167;SDS011;9716;53.114;18.040;2023-07-09T05:59:29;2.50;;;1.08;;
19167;SDS011;9716;53.114;18.040;2023-07-09T06:02:10;3.20;;;1.50;;
19167;SDS011;9716;53.114;18.040;2023-07-09T06:04:52;5.75;;;1.50;;
19167;SDS011;9716;53.114;18.040;2023-07-09T06:07:29;1.48;;;1.00;;
19167;SDS011;9716;53.114;18.040;2023-07-09T06:10:15;2.17;;;1.20;;
19167;SDS011;9716;53.114;18.040;2023-07-09T06:12:55;1.52;;;0.90;;
19167;SDS011;9716;53.114;18.040;2023-07-09T06:15:47;1.10;;;1.00;;
19167;SDS011;9716;53.114;18.040;2023-07-09T06:18:21;2.78;;;0.95;;
19167;SDS011;9716;53.114;18.040;2023-07-09T06:21:04;1.85;;;1.20;;
19167;SDS011;9716;53.114;18.040;2023-07-09T06:23:44;1.25;;;0.90;;
19167;SDS011;9716;53.114;18.040;2023-07-09T06:26:23;1.38;;;0.93;;
19167;SDS011;9716;53.114;18.040;2023-07-09T06:29:05;2.40;;;1.05;;
19167;SDS011;9716;53.114;18.040;2023-07-09T06:31:45;1.95;;;1.30;;
19167;SDS011;9716;53.114;18.040;2023-07-09T06:34:25;1.83;;;1.17;;
19167;SDS011;9716;53.114;18.040;2023-07-09T06:37:01;1.67;;;0.95;;
19167;SDS011;9716;53.114;18.040;2023-07-09T06:39:36;3.00;;;1.35;;
19167;SDS011;9716;53.114;18.040;2023-07-09T06:42:16;0.95;;;0.88;;
19167;SDS011;9716;53.114;18.040;2023-07-09T06:45:04;5.57;;;1.13;;
19167;SDS011;9716;53.114;18.040;2023-07-09T06:47:44;1.35;;;1.08;;
19167;SDS011;9716;53.114;18.040;2023-07-09T06:53:12;1.58;;;1.00;;
19167;SDS011;9716;53.114;18.040;2023-07-09T06:55:43;1.38;;;0.95;;
19167;SDS011;9716;53.114;18.040;2023-07-09T06:58:25;0.80;;;0.80;;
19167;SDS011;9716;53.114;18.040;2023-07-09T07:01:28;1.42;;;0.80;;
19167;SDS011;9716;53.114;18.040;2023-07-09T07:04:06;0.77;;;0.75;;
19167;SDS011;9716;53.114;18.040;2023-07-09T07:06:41;1.13;;;0.88;;
19167;SDS011;9716;53.114;18.040;2023-07-09T07:09:30;1.55;;;1.13;;
19167;SDS011;9716;53.114;18.040;2023-07-09T07:12:10;1.20;;;0.90;;
19167;SDS011;9716;53.114;18.040;2023-07-09T07:15:05;5.40;;;1.38;;
19167;SDS011;9716;53.114;18.040;2023-07-09T07:17:44;2.33;;;0.82;;
19167;SDS011;9716;53.114;18.040;2023-07-09T07:20:32;1.30;;;1.02;;
19167;SDS011;9716;53.114;18.040;2023-07-09T07:23:18;2.05;;;0.82;;
19167;SDS011;9716;53.114;18.040;2023-07-09T07:26:04;0.98;;;0.88;;
19167;SDS011;9716;53.114;18.040;2023-07-09T07:28:40;1.73;;;1.20;;
19167;SDS011;9716;53.114;18.040;2023-07-09T07:31:18;1.20;;;0.80;;
19167;SDS011;9716;53.114;18.040;2023-07-09T07:33:53;0.98;;;0.93;;
19167;SDS011;9716;53.114;18.040;2023-07-09T07:36:35;1.60;;;0.82;;
19167;SDS011;9716;53.114;18.040;2023-07-09T07:39:17;4.15;;;1.15;;
19167;SDS011;9716;53.114;18.040;2023-07-09T07:42:01;1.80;;;0.82;;
19167;SDS011;9716;53.114;18.040;2023-07-09T07:44:34;4.85;;;1.00;;
19167;SDS011;9716;53.114;18.040;2023-07-09T07:47:11;1.45;;;0.90;;
19167;SDS011;9716;53.114;18.040;2023-07-09T07:49:49;2.13;;;1.15;;
19167;SDS011;9716;53.114;18.040;2023-07-09T07:52:34;1.80;;;0.90;;
19167;SDS011;9716;53.114;18.040;2023-07-09T07:55:12;1.50;;;1.00;;
19167;SDS011;9716;53.114;18.040;2023-07-09T07:57:56;1.10;;;1.00;;
19167;SDS011;9716;53.114;18.040;2023-07-09T08:00:34;0.85;;;0.77;;
19167;SDS011;9716;53.114;18.040;2023-07-09T08:03:15;2.30;;;1.33;;
19167;SDS011;9716;53.114;18.040;2023-07-09T08:05:52;1.80;;;1.20;;
19167;SDS011;9716;53.114;18.040;2023-07-09T08:08:51;0.88;;;0.88;;
19167;SDS011;9716;53.114;18.040;2023-07-09T08:11:46;0.85;;;0.75;;
19167;SDS011;9716;53.114;18.040;2023-07-09T08:14:37;4.95;;;0.80;;
19167;SDS011;9716;53.114;18.040;2023-07-09T08:17:20;1.67;;;0.80;;
19167;SDS011;9716;53.114;18.040;2023-07-09T08:20:10;1.00;;;0.73;;
19167;SDS011;9716;53.114;18.040;2023-07-09T08:22:58;1.83;;;1.10;;
19167;SDS011;9716;53.114;18.040;2023-07-09T08:25:44;2.60;;;0.93;;
19167;SDS011;9716;53.114;18.040;2023-07-09T08:28:33;1.55;;;1.10;;
19167;SDS011;9716;53.114;18.040;2023-07-09T08:31:29;2.45;;;0.80;;
19167;SDS011;9716;53.114;18.040;2023-07-09T08:34:16;0.80;;;0.80;;
19167;SDS011;9716;53.114;18.040;2023-07-09T08:37:08;1.15;;;0.82;;
19167;SDS011;9716;53.114;18.040;2023-07-09T08:40:09;1.98;;;0.80;;
19167;SDS011;9716;53.114;18.040;2023-07-09T08:43:13;1.23;;;0.80;;
19167;SDS011;9716;53.114;18.040;2023-07-09T08:46:03;1.38;;;0.80;;
19167;SDS011;9716;53.114;18.040;2023-07-09T08:51:54;0.95;;;0.68;;
19167;SDS011;9716;53.114;18.040;2023-07-09T08:55:20;0.65;;;0.65;;
19167;SDS011;9716;53.114;18.040;2023-07-09T08:58:14;1.77;;;0.90;;
19167;SDS011;9716;53.114;18.040;2023-07-09T09:01:14;0.73;;;0.73;;
19167;SDS011;9716;53.114;18.040;2023-07-09T09:04:13;0.90;;;0.80;;
19167;SDS011;9716;53.114;18.040;2023-07-09T09:07:45;2.03;;;0.65;;
19167;SDS011;9716;53.114;18.040;2023-07-09T09:11:07;1.58;;;1.08;;
19167;SDS011;9716;53.114;18.040;2023-07-09T09:14:09;0.95;;;0.82;;
19167;SDS011;9716;53.114;18.040;2023-07-09T09:17:31;0.85;;;0.70;;
19167;SDS011;9716;53.114;18.040;2023-07-09T09:23:54;2.55;;;0.80;;
19167;SDS011;9716;53.114;18.040;2023-07-09T09:31:02;2.15;;;0.73;;
19167;SDS011;9716;53.114;18.040;2023-07-09T09:34:03;1.05;;;0.80;;
19167;SDS011;9716;53.114;18.040;2023-07-09T09:43:35;0.60;;;0.60;;
19167;SDS011;9716;53.114;18.040;2023-07-09T09:46:38;0.63;;;0.60;;
19167;SDS011;9716;53.114;18.040;2023-07-09T09:49:54;0.55;;;0.55;;
19167;SDS011;9716;53.114;18.040;2023-07-09T09:53:38;0.70;;;0.70;;
19167;SDS011;9716;53.114;18.040;2023-07-09T10:07:51;2.40;;;0.80;;
19167;SDS011;9716;53.114;18.040;2023-07-09T10:11:12;1.17;;;0.80;;
19167;SDS011;9716;53.114;18.040;2023-07-09T10:14:32;0.93;;;0.85;;
19167;SDS011;9716;53.114;18.040;2023-07-09T10:17:35;2.88;;;0.80;;
19167;SDS011;9716;53.114;18.040;2023-07-09T10:20:45;4.22;;;0.88;;
19167;SDS011;9716;53.114;18.040;2023-07-09T10:23:29;3.40;;;0.95;;
19167;SDS011;9716;53.114;18.040;2023-07-09T10:26:14;0.63;;;0.60;;
19167;SDS011;9716;53.114;18.040;2023-07-09T10:29:07;0.98;;;0.90;;
19167;SDS011;9716;53.114;18.040;2023-07-09T10:32:13;0.82;;;0.65;;
19167;SDS011;9716;53.114;18.040;2023-07-09T10:35:24;0.65;;;0.65;;
19167;SDS011;9716;53.114;18.040;2023-07-09T10:38:38;1.25;;;1.00;;
19167;SDS011;9716;53.114;18.040;2023-07-09T10:41:41;0.52;;;0.52;;
19167;SDS011;9716;53.114;18.040;2023-07-09T10:45:08;1.10;;;0.77;;
19167;SDS011;9716;53.114;18.040;2023-07-09T10:48:25;0.90;;;0.70;;
19167;SDS011;9716;53.114;18.040;2023-07-09T10:51:59;1.08;;;0.85;;
19167;SDS011;9716;53.114;18.040;2023-07-09T10:55:00;1.48;;;0.60;;
19167;SDS011;9716;53.114;18.040;2023-07-09T10:57:57;1.02;;;0.70;;
19167;SDS011;9716;53.114;18.040;2023-07-09T11:00:36;0.77;;;0.70;;
19167;SDS011;9716;53.114;18.040;2023-07-09T11:03:19;0.85;;;0.73;;
19167;SDS011;9716;53.114;18.040;2023-07-09T11:06:09;0.68;;;0.60;;
19167;SDS011;9716;53.114;18.040;2023-07-09T11:09:05;0.90;;;0.60;;
19167;SDS011;9716;53.114;18.040;2023-07-09T11:11:57;2.22;;;0.75;;
19167;SDS011;9716;53.114;18.040;2023-07-09T11:14:35;0.60;;;0.60;;
19167;SDS011;9716;53.114;18.040;2023-07-09T11:17:31;0.65;;;0.65;;
19167;SDS011;9716;53.114;18.040;2023-07-09T11:20:17;2.17;;;0.70;;
19167;SDS011;9716;53.114;18.040;2023-07-09T11:23:02;0.60;;;0.60;;
19167;SDS011;9716;53.114;18.040;2023-07-09T11:25:46;1.10;;;0.73;;
19167;SDS011;9716;53.114;18.040;2023-07-09T11:28:40;1.08;;;0.60;;
19167;SDS011;9716;53.114;18.040;2023-07-09T11:31:31;3.20;;;0.50;;
19167;SDS011;9716;53.114;18.040;2023-07-09T11:34:16;0.90;;;0.80;;
19167;SDS011;9716;53.114;18.040;2023-07-09T11:37:13;4.40;;;0.70;;
19167;SDS011;9716;53.114;18.040;2023-07-09T11:39:53;0.45;;;0.45;;
19167;SDS011;9716;53.114;18.040;2023-07-09T11:42:47;0.65;;;0.60;;
19167;SDS011;9716;53.114;18.040;2023-07-09T11:45:48;0.65;;;0.60;;
19167;SDS011;9716;53.114;18.040;2023-07-09T11:48:26;0.50;;;0.50;;
19167;SDS011;9716;53.114;18.040;2023-07-09T11:51:08;0.50;;;0.50;;
19167;SDS011;9716;53.114;18.040;2023-07-09T11:54:20;0.80;;;0.80;;
19167;SDS011;9716;53.114;18.040;2023-07-09T11:57:12;1.00;;;0.75;;
19167;SDS011;9716;53.114;18.040;2023-07-09T11:59:58;1.52;;;0.43;;
19167;SDS011;9716;53.114;18.040;2023-07-09T12:03:01;1.13;;;0.70;;
19167;SDS011;9716;53.114;18.040;2023-07-09T12:05:41;0.65;;;0.60;;
19167;SDS011;9716;53.114;18.040;2023-07-09T12:08:25;2.38;;;1.00;;
19167;SDS011;9716;53.114;18.040;2023-07-09T12:11:05;1.00;;;0.90;;
19167;SDS011;9716;53.114;18.040;2023-07-09T12:13:54;1.00;;;0.90;;
19167;SDS011;9716;53.114;18.040;2023-07-09T12:16:45;0.88;;;0.80;;
19167;SDS011;9716;53.114;18.040;2023-07-09T12:19:40;1.08;;;0.70;;
19167;SDS011;9716;53.114;18.040;2023-07-09T12:22:22;2.90;;;0.93;;
19167;SDS011;9716;53.114;18.040;2023-07-09T12:24:55;1.35;;;0.70;;
19167;SDS011;9716;53.114;18.040;2023-07-09T12:27:35;0.90;;;0.80;;
19167;SDS011;9716;53.114;18.040;2023-07-09T12:30:14;1.48;;;0.90;;
19167;SDS011;9716;53.114;18.040;2023-07-09T12:32:51;0.73;;;0.73;;
19167;SDS011;9716;53.114;18.040;2023-07-09T12:35:26;1.65;;;0.70;;
19167;SDS011;9716;53.114;18.040;2023-07-09T12:38:17;0.70;;;0.70;;
19167;SDS011;9716;53.114;18.040;2023-07-09T12:41:09;1.13;;;0.93;;
19167;SDS011;9716;53.114;18.040;2023-07-09T12:44:08;0.77;;;0.57;;
19167;SDS011;9716;53.114;18.040;2023-07-09T12:46:59;0.55;;;0.50;;
19167;SDS011;9716;53.114;18.040;2023-07-09T12:49:37;1.13;;;0.88;;
19167;SDS011;9716;53.114;18.040;2023-07-09T12:52:17;0.70;;;0.70;;
19167;SDS011;9716;53.114;18.040;2023-07-09T12:54:56;1.75;;;0.90;;
19167;SDS011;9716;53.114;18.040;2023-07-09T12:57:30;0.40;;;0.40;;
19167;SDS011;9716;53.114;18.040;2023-07-09T13:00:01;1.17;;;0.65;;
19167;SDS011;9716;53.114;18.040;2023-07-09T13:02:39;0.73;;;0.73;;
19167;SDS011;9716;53.114;18.040;2023-07-09T13:05:20;1.75;;;0.93;;
19167;SDS011;9716;53.114;18.040;2023-07-09T13:08:04;1.10;;;0.77;;
19167;SDS011;9716;53.114;18.040;2023-07-09T13:10:41;0.90;;;0.85;;
19167;SDS011;9716;53.114;18.040;2023-07-09T13:13:34;0.98;;;0.65;;
19167;SDS011;9716;53.114;18.040;2023-07-09T13:16:19;2.13;;;0.85;;
19167;SDS011;9716;53.114;18.040;2023-07-09T13:18:59;0.85;;;0.80;;
19167;SDS011;9716;53.114;18.040;2023-07-09T13:21:40;0.80;;;0.80;;
19167;SDS011;9716;53.114;18.040;2023-07-09T13:24:28;2.40;;;1.05;;
19167;SDS011;9716;53.114;18.040;2023-07-09T13:27:05;1.88;;;0.98;;
19167;SDS011;9716;53.114;18.040;2023-07-09T13:29:46;2.38;;;0.93;;
19167;SDS011;9716;53.114;18.040;2023-07-09T13:32:23;2.40;;;0.95;;
19167;SDS011;9716;53.114;18.040;2023-07-09T13:35:12;1.90;;;1.02;;
19167;SDS011;9716;53.114;18.040;2023-07-09T13:37:51;0.70;;;0.70;;
19167;SDS011;9716;53.114;18.040;2023-07-09T13:40:40;4.93;;;0.95;;
19167;SDS011;9716;53.114;18.040;2023-07-09T13:43:26;1.27;;;0.80;;
19167;SDS011;9716;53.114;18.040;2023-07-09T13:46:20;1.38;;;1.00;;
19167;SDS011;9716;53.114;18.040;2023-07-09T13:48:58;1.85;;;1.20;;
19167;SDS011;9716;53.114;18.040;2023-07-09T13:51:39;0.85;;;0.77;;
19167;SDS011;9716;53.114;18.040;2023-07-09T13:54:19;2.05;;;0.90;;
19167;SDS011;9716;53.114;18.040;2023-07-09T13:57:20;0.80;;;0.80;;
19167;SDS011;9716;53.114;18.040;2023-07-09T14:00:07;0.95;;;0.88;;
19167;SDS011;9716;53.114;18.040;2023-07-09T14:02:55;1.25;;;0.65;;
19167;SDS011;9716;53.114;18.040;2023-07-09T14:05:45;0.93;;;0.80;;
19167;SDS011;9716;53.114;18.040;2023-07-09T14:08:20;2.42;;;1.02;;
19167;SDS011;9716;53.114;18.040;2023-07-09T14:10:59;1.33;;;0.82;;
19167;SDS011;9716;53.114;18.040;2023-07-09T14:13:48;1.65;;;0.82;;
19167;SDS011;9716;53.114;18.040;2023-07-09T14:16:31;1.52;;;1.17;;
19167;SDS011;9716;53.114;18.040;2023-07-09T14:19:17;1.85;;;1.02;;
19167;SDS011;9716;53.114;18.040;2023-07-09T14:22:08;4.00;;;1.02;;
19167;SDS011;9716;53.114;18.040;2023-07-09T14:25:15;1.10;;;0.90;;
19167;SDS011;9716;53.114;18.040;2023-07-09T14:28:04;2.35;;;1.08;;
19167;SDS011;9716;53.114;18.040;2023-07-09T14:30:45;0.93;;;0.80;;
19167;SDS011;9716;53.114;18.040;2023-07-09T14:33:45;2.78;;;0.90;;
19167;SDS011;9716;53.114;18.040;2023-07-09T14:36:24;1.20;;;0.98;;
19167;SDS011;9716;53.114;18.040;2023-07-09T14:39:39;0.95;;;0.77;;
19167;SDS011;9716;53.114;18.040;2023-07-09T14:42:04;1.48;;;0.95;;
19167;SDS011;9716;53.114;18.040;2023-07-09T14:44:59;0.80;;;0.80;;
19167;SDS011;9716;53.114;18.040;2023-07-09T14:47:43;2.75;;;1.10;;
19167;SDS011;9716;53.114;18.040;2023-07-09T14:50:23;1.00;;;0.80;;
19167;SDS011;9716;53.114;18.040;2023-07-09T14:53:10;0.70;;;0.60;;
19167;SDS011;9716;53.114;18.040;2023-07-09T14:55:48;1.35;;;0.90;;
19167;SDS011;9716;53.114;18.040;2023-07-09T14:58:25;0.80;;;0.80;;
19167;SDS011;9716;53.114;18.040;2023-07-09T15:01:16;1.00;;;0.90;;
19167;SDS011;9716;53.114;18.040;2023-07-09T15:04:00;1.23;;;0.90;;
19167;SDS011;9716;53.114;18.040;2023-07-09T15:06:59;1.35;;;0.90;;
19167;SDS011;9716;53.114;18.040;2023-07-09T15:09:37;1.17;;;1.00;;
19167;SDS011;9716;53.114;18.040;2023-07-09T15:12:18;2.85;;;1.05;;
19167;SDS011;9716;53.114;18.040;2023-07-09T15:14:58;2.20;;;1.10;;
19167;SDS011;9716;53.114;18.040;2023-07-09T15:17:46;1.50;;;1.00;;
19167;SDS011;9716;53.114;18.040;2023-07-09T15:20:24;1.10;;;1.02;;
19167;SDS011;9716;53.114;18.040;2023-07-09T15:23:09;1.00;;;0.77;;
19167;SDS011;9716;53.114;18.040;2023-07-09T15:25:52;0.85;;;0.80;;
19167;SDS011;9716;53.114;18.040;2023-07-09T15:28:33;8.07;;;1.58;;
19167;SDS011;9716;53.114;18.040;2023-07-09T15:31:12;1.38;;;0.80;;
19167;SDS011;9716;53.114;18.040;2023-07-09T15:34:16;1.92;;;1.27;;
19167;SDS011;9716;53.114;18.040;2023-07-09T15:37:08;1.05;;;0.95;;
19167;SDS011;9716;53.114;18.040;2023-07-09T15:39:48;1.35;;;0.90;;
19167;SDS011;9716;53.114;18.040;2023-07-09T15:42:27;1.05;;;0.85;;
19167;SDS011;9716;53.114;18.040;2023-07-09T15:45:31;1.20;;;0.88;;
19167;SDS011;9716;53.114;18.040;2023-07-09T15:48:09;1.65;;;1.08;;
19167;SDS011;9716;53.114;18.040;2023-07-09T15:50:56;1.67;;;1.15;;
19167;SDS011;9716;53.114;18.040;2023-07-09T15:53:41;1.52;;;1.08;;
19167;SDS011;9716;53.114;18.040;2023-07-09T15:56:23;2.10;;;1.42;;
19167;SDS011;9716;53.114;18.040;2023-07-09T15:59:15;0.90;;;0.90;;
19167;SDS011;9716;53.114;18.040;2023-07-09T16:02:09;1.90;;;1.20;;
19167;SDS011;9716;53.114;18.040;2023-07-09T16:04:57;1.95;;;0.90;;
19167;SDS011;9716;53.114;18.040;2023-07-09T16:07:30;1.35;;;1.10;;
19167;SDS011;9716;53.114;18.040;2023-07-09T16:10:10;2.40;;;1.13;;
19167;SDS011;9716;53.114;18.040;2023-07-09T16:12:51;1.67;;;1.00;;
19167;SDS011;9716;53.114;18.040;2023-07-09T16:15:58;1.45;;;1.00;;
19167;SDS011;9716;53.114;18.040;2023-07-09T16:18:33;1.10;;;0.95;;
19167;SDS011;9716;53.114;18.040;2023-07-09T16:21:11;1.40;;;1.02;;
19167;SDS011;9716;53.114;18.040;2023-07-09T16:24:00;1.20;;;0.90;;
19167;SDS011;9716;53.114;18.040;2023-07-09T16:26:47;1.55;;;1.02;;
19167;SDS011;9716;53.114;18.040;2023-07-09T16:29:23;1.50;;;1.10;;
19167;SDS011;9716;53.114;18.040;2023-07-09T16:32:05;2.10;;;0.90;;
19167;SDS011;9716;53.114;18.040;2023-07-09T16:34:49;1.25;;;1.00;;
19167;SDS011;9716;53.114;18.040;2023-07-09T16:37:40;2.20;;;1.25;;
19167;SDS011;9716;53.114;18.040;2023-07-09T16:40:17;1.05;;;0.90;;
19167;SDS011;9716;53.114;18.040;2023-07-09T16:43:09;1.08;;;0.98;;
19167;SDS011;9716;53.114;18.040;2023-07-09T16:45:51;1.40;;;0.88;;
19167;SDS011;9716;53.114;18.040;2023-07-09T16:48:51;1.52;;;1.10;;
19167;SDS011;9716;53.114;18.040;2023-07-09T16:52:18;1.10;;;0.98;;
19167;SDS011;9716;53.114;18.040;2023-07-09T16:55:30;1.15;;;1.05;;
19167;SDS011;9716;53.114;18.040;2023-07-09T16:58:25;6.15;;;1.10;;
19167;SDS011;9716;53.114;18.040;2023-07-09T17:01:41;5.25;;;1.10;;
19167;SDS011;9716;53.114;18.040;2023-07-09T17:04:44;0.85;;;0.85;;